Data for 05/01/2009

Time Sea-Level Adjusted Pressure Absolute Pressure Temperature Relative Humidity Dew Point   
(mb) (inHg) (mb) (inHg) (C) (F) (%) (C) (F)
00:05 1024 30.24 853 25.19 -1.2 29.8 83 -3.7 25.4
00:10 1024 30.24 853 25.19 -1.2 29.9 83 -3.7 25.4
00:15 1024 30.24 853 25.19 -1.2 29.9 82 -3.9 25.1
00:20 1024 30.24 853 25.19 -1.3 29.7 82 -4 24.9
00:25 1024 30.24 853 25.19 -1.5 29.3 84 -3.9 25
00:30 1024 30.24 853 25.19 -1.6 29.1 83 -4.1 24.7
00:35 1024 30.24 853 25.19 -1.5 29.3 81 -4.4 24.2
00:40 1024 30.24 853 25.19 -1.5 29.3 81 -4.4 24.1
00:45 1024 30.24 853 25.19 -1.5 29.3 80 -4.5 23.9
00:50 1024 30.24 853 25.19 -1.5 29.3 79 -4.7 23.5
00:55 1024 30.24 853 25.19 -1.4 29.4 78 -4.8 23.4
01:00 1024 30.24 853 25.19 -1.4 29.5 77 -4.8 23.3
01:05 1024 30.24 853 25.19 -1.4 29.5 77 -4.8 23.3
01:10 1024 30.24 853 25.19 -1.4 29.5 76 -5 22.9
01:15 1024 30.24 853 25.19 -1.4 29.4 78 -4.8 23.4
01:20 1024 30.24 853 25.19 -1.5 29.3 77 -5 22.9
01:25 1024 30.24 853 25.19 -1.3 29.7 76 -4.9 23.2
01:30 1024 30.24 853 25.19 -1.3 29.6 77 -4.8 23.4
01:35 1024 30.24 853 25.19 -1.5 29.4 78 -4.8 23.3
01:40 1024 30.24 853 25.19 -1.5 29.2 76 -5.2 22.7
01:45 1024 30.24 853 25.19 -1.7 29 78 -5.1 22.8
01:50 1024 30.24 853 25.19 -1.8 28.7 77 -5.3 22.5
01:55 1024 30.24 853 25.19 -2 28.5 78 -5.4 22.3
02:00 1024 30.24 853 25.19 -1.9 28.6 78 -5.3 22.5
02:05 1024 30.24 853 25.19 -1.9 28.5 77 -5.4 22.3
02:10 1024 30.24 853 25.19 -2.2 28 78 -5.5 22.1
02:15 1024 30.24 853 25.19 -2.3 27.8 78 -5.6 21.9
02:20 1024 30.24 853 25.19 -2.2 28 77 -5.7 21.7
02:25 1024 30.24 853 25.19 -2.2 28 77 -5.7 21.8
02:30 1024 30.24 853 25.19 -2.3 27.8 79 -5.6 22
02:35 1024 30.24 853 25.19 -2.4 27.7 78 -5.8 21.6
02:40 1024 30.24 853 25.19 -2.5 27.6 78 -5.7 21.7
02:45 1024 30.24 853 25.19 -2.5 27.5 78 -5.8 21.6
02:50 1024 30.24 853 25.19 -2.5 27.6 77 -5.9 21.4
02:55 1024 30.24 853 25.19 -2.3 27.9 77 -5.8 21.5
03:00 1024 30.24 853 25.19 -2.1 28.2 79 -5.3 22.4
03:05 1024 30.24 853 25.19 -2.1 28.1 80 -5.2 22.6
03:10 1024 30.24 853 25.19 -2.1 28.2 80 -5.1 22.8
03:15 1024 30.24 853 25.19 -2.1 28.3 75 -5.9 21.5
03:20 1024 30.24 853 25.19 -1.9 28.5 75 -5.7 21.7
03:25 1024 30.24 853 25.19 -2 28.4 76 -5.7 21.8
03:30 1024 30.24 853 25.19 -2.1 28.3 77 -5.6 21.9
03:35 1024 30.24 853 25.19 -2 28.3 77 -5.5 22.1
03:40 1024 30.24 853 25.19 -2 28.4 77 -5.5 22
03:45 1024 30.24 853 25.19 -2.1 28.2 78 -5.5 22.2
03:50 1024 30.24 853 25.19 -2.1 28.2 79 -5.2 22.6
03:55 1024 30.24 853 25.19 -2.1 28.2 79 -5.2 22.7
04:00 1024 30.24 853 25.19 -2.1 28.3 79 -5.3 22.4
04:05 1024 30.24 853 25.19 -2.1 28.3 79 -5.2 22.6
04:10 1024 30.24 853 25.19 -2.2 28.1 80 -5.1 22.7
04:15 1024 30.24 853 25.19 -2.2 28 81 -5.1 22.8
04:20 1024 30.24 853 25.19 -2.2 28.1 81 -5 22.9
04:25 1024 30.24 853 25.19 -2.2 28.1 80 -5.2 22.7
04:30 1024 30.24 853 25.19 -2.1 28.2 78 -5.4 22.3
04:35 1024 30.24 853 25.19 -2 28.4 77 -5.5 22.2
04:40 1024 30.24 853 25.19 -2 28.3 77 -5.6 21.9
04:45 1024 30.24 853 25.19 -2.1 28.2 77 -5.7 21.8
04:50 1024 30.24 853 25.19 -2.2 28.1 77 -5.7 21.7
04:55 1024 30.24 853 25.19 -2.1 28.2 74 -6.2 20.8
05:00 1024 30.24 853 25.19 -2.6 27.4 74 -6.5 20.3
05:05 1024 30.24 853 25.19 -2.2 28.1 77 -5.7 21.7
05:10 1024 30.24 853 25.19 -2.1 28.3 78 -5.4 22.4
05:15 1024 30.24 853 25.19 -2.3 27.9 74 -6.3 20.7
05:20 1024 30.24 853 25.19 -2.5 27.5 75 -6.4 20.6
05:25 1024 30.24 853 25.19 -2.6 27.3 77 -6.2 20.9
05:30 1024 30.24 853 25.19 -2.9 26.8 79 -6.1 21
05:35 1024 30.24 853 25.19 -2.9 26.8 79 -6.1 21.1
05:40 1024 30.24 853 25.19 -3 26.7 79 -6 21.2
05:45 1024 30.24 853 25.19 -2.8 26.9 78 -6.2 20.9
05:50 1024 30.24 853 25.19 -2.9 26.8 76 -6.5 20.3
05:55 1024 30.24 853 25.19 -3 26.5 75 -6.8 19.7
06:00 1024 30.24 853 25.19 -3 26.5 74 -7 19.4
06:05 1024 30.24 853 25.19 -3.1 26.4 75 -6.9 19.5
06:10 1024 30.24 853 25.19 -3.2 26.3 75 -7 19.4
06:15 1024 30.24 853 25.19 -3.3 26 76 -6.9 19.6
06:20 1024 30.24 853 25.19 -3.4 25.9 78 -6.7 20
06:25 1024 30.24 853 25.19 -3.4 26 80 -6.4 20.5
06:30 1024 30.24 853 25.19 -3.3 26 80 -6.2 20.8
06:35 1024 30.24 853 25.19 -3.3 26.1 80 -6.2 20.8
06:40 1024 30.24 853 25.19 -3.1 26.5 79 -6.3 20.7
06:45 1024 30.24 853 25.19 -2.8 26.9 76 -6.5 20.4
06:50 1024 30.24 853 25.19 -2.7 27.1 74 -6.7 19.9
06:55 1024 30.24 853 25.19 -2.7 27.1 74 -6.8 19.8
07:00 1024 30.24 853 25.19 -2.6 27.3 73 -6.8 19.7
07:05 1024 30.24 853 25.19 -2.4 27.7 73 -6.7 20
07:10 1024 30.24 853 25.19 -2 28.4 72 -6.4 20.5
07:15 1024 30.24 853 25.19 -2.1 28.3 74 -6.1 21
07:20 1024 30.24 853 25.19 -1.7 29 76 -5.4 22.2
07:25 1024 30.24 853 25.19 -1.8 28.8 77 -5.3 22.5
07:30 1024 30.24 853 25.19 -1.6 29.1 74 -5.6 22
07:35 1024 30.24 853 25.19 -1.8 28.7 76 -5.6 22
07:40 1024 30.24 853 25.19 -1.3 29.7 74 -5.3 22.4
07:45 1024 30.24 853 25.19 -1.3 29.6 75 -5.3 22.5
07:50 1024 30.24 853 25.19 -1 30.2 74 -5.1 22.8
07:55 1024 30.24 853 25.19 -0.4 31.3 72 -4.8 23.4
08:00 1024 30.24 853 25.19 -0.2 31.6 71 -4.9 23.2
08:05 1024 30.24 853 25.19 -0 32 70 -4.8 23.4
08:10 1024 30.24 853 25.19 0.2 32.3 69 -4.8 23.3
08:15 1024 30.24 853 25.19 0.8 33.4 68 -4.5 24
08:20 1024 30.24 853 25.19 1 33.8 66 -4.6 23.7
08:25 1024 30.24 853 25.19 1.7 35.1 64 -4.3 24.2
08:30 1024 30.24 853 25.19 1.8 35.2 65 -4 24.8
08:35 1024 30.24 853 25.19 2.2 36 62 -4.3 24.3
08:40 1024 30.24 853 25.19 2.5 36.5 62 -4.1 24.6
08:45 1024 30.24 853 25.19 2.5 36.5 63 -3.8 25.2
08:50 1024 30.24 853 25.19 2.3 36.1 63 -4.1 24.6
08:55 1024 30.24 853 25.19 2.3 36.2 62 -4.2 24.5
09:00 1024 30.24 853 25.19 2.8 37.1 61 -4 24.8
09:05 1024 30.24 853 25.19 3.3 38 57 -4.3 24.2
09:10 1024 30.24 853 25.19 3.1 37.6 63 -3.2 26.2
09:15 1024 30.24 853 25.19 1.7 35 64 -4.5 24
09:20 1024 30.24 853 25.19 1.6 34.9 64 -4.5 23.9
09:25 1024 30.24 853 25.19 1.4 34.5 66 -4.3 24.2
09:30 1024 30.24 853 25.19 1.6 34.9 63 -4.6 23.7
09:35 1024 30.24 853 25.19 1.9 35.5 64 -4.1 24.7
09:40 1024 30.24 853 25.19 1.5 34.6 66 -4.1 24.6
09:45 1024 30.24 853 25.19 2.4 36.2 60 -4.6 23.7
09:50 1024 30.24 853 25.19 3 37.4 58 -4.4 24.1
09:55 1024 30.24 853 25.19 3.4 38.2 60 -3.6 25.6
10:00 1024 30.24 853 25.19 3.2 37.7 58 -4.3 24.2
10:05 1024 30.24 853 25.19 4.2 39.6 54 -4.2 24.4
10:10 1024 30.24 853 25.19 4.6 40.3 54 -4 24.8
10:15 1024 30.24 853 25.19 4.7 40.5 56 -3.4 25.8
10:20 1024 30.24 853 25.19 4.2 39.6 56 -3.7 25.3
10:25 1024 30.24 853 25.19 4.9 40.9 53 -3.8 25.2
10:30 1024 30.24 853 25.19 5.2 41.3 56 -2.9 26.8
10:35 1024 30.24 853 25.19 5 41 57 -2.8 26.9
10:40 1024 30.24 853 25.19 4.5 40 54 -4 24.8
10:45 1024 30.24 853 25.19 5.4 41.7 53 -3.3 26
10:50 1024 30.24 853 25.19 5.2 41.4 52 -3.8 25.2
10:55 1024 30.24 853 25.19 3.5 38.3 60 -3.6 25.5
11:00 1024 30.24 853 25.19 3.5 38.3 61 -3.3 26
11:05 1024 30.24 853 25.19 4.1 39.4 54 -4.3 24.3
11:10 1024 30.24 853 25.19 4.7 40.5 54 -3.7 25.3
11:15 1024 30.24 853 25.19 5.4 41.8 54 -3.1 26.4
11:20 1024 30.24 853 25.19 5.5 41.8 54 -3.2 26.3
11:25 1023 30.21 853 25.19 5.2 41.4 54 -3.4 25.9
11:30 1023 30.21 853 25.19 4.8 40.6 56 -3.3 26
11:35 1023 30.21 853 25.19 5.2 41.4 52 -3.9 24.9
11:40 1023 30.21 853 25.19 5.2 41.4 54 -3.3 26
11:45 1023 30.21 853 25.19 6 42.8 50 -3.8 25.2
11:50 1023 30.21 852 25.16 5.4 41.8 53 -3.3 26.1
11:55 1023 30.21 852 25.16 4.4 39.8 57 -3.3 26
12:00 1023 30.21 852 25.16 5.5 41.9 50 -4.2 24.5
12:05 1023 30.21 852 25.16 6.2 43.1 50 -3.6 25.6
12:10 1023 30.21 852 25.16 6.7 44.1 49 -3.3 26.1
12:15 1023 30.21 852 25.16 6.6 43.8 50 -3.2 26.3
12:20 1023 30.21 852 25.16 6.8 44.3 47 -3.7 25.3
12:25 1023 30.21 852 25.16 6.9 44.4 47 -3.7 25.3
12:30 1023 30.21 852 25.16 7.6 45.6 41 -4.8 23.4
12:35 1023 30.21 852 25.16 7.7 45.8 42 -4.5 23.9
12:40 1023 30.21 852 25.16 7.7 45.8 41 -4.7 23.5
12:45 1023 30.21 852 25.16 7.1 44.7 44 -4.5 23.9
12:50 1023 30.21 852 25.16 7.6 45.6 43 -4.3 24.3
12:55 1023 30.21 852 25.16 7.8 46 35 -6.6 20.2
13:00 1023 30.21 852 25.16 7.1 44.8 42 -5.1 22.9
13:05 1023 30.21 852 25.16 8.1 46.7 37 -5.6 21.9
13:10 1023 30.21 852 25.16 7 44.5 38 -6.2 20.8
13:15 1023 30.21 852 25.16 6.7 44.1 34 -8 17.6
13:20 1023 30.21 852 25.16 7.7 45.9 31 -8.5 16.7
13:25 1023 30.21 852 25.16 8.4 47 38 -5.1 22.9
13:30 1022 30.18 852 25.16 6.9 44.5 43 -4.7 23.6
13:35 1022 30.18 852 25.16 6.8 44.2 43 -5 23
13:40 1022 30.18 852 25.16 7.9 46.2 39 -5.3 22.5
13:45 1022 30.18 852 25.16 7.3 45.2 35 -7 19.4
13:50 1022 30.18 852 25.16 6.2 43.2 38 -6.9 19.5
13:55 1022 30.18 851 25.13 6.8 44.2 37 -7 19.4
14:00 1022 30.18 851 25.13 7 44.6 42 -5 22.9
14:05 1022 30.18 851 25.13 8 46.4 33 -7.4 18.7
14:10 1022 30.18 851 25.13 8.3 47 35 -6.1 21
14:15 1022 30.18 851 25.13 7.9 46.3 33 -7.3 18.9
14:20 1022 30.18 851 25.13 8.2 46.7 34 -6.6 20.2
14:25 1022 30.18 851 25.13 8.6 47.5 35 -6.1 21
14:30 1022 30.18 851 25.13 7.7 45.9 39 -5.4 22.2
14:35 1022 30.18 851 25.13 8.5 47.2 35 -6.1 21
14:40 1022 30.18 851 25.13 8.5 47.2 35 -6.2 20.8
14:45 1022 30.18 851 25.13 7.8 46 34 -7.1 19.2
14:50 1022 30.18 851 25.13 7.8 46 35 -6.6 20
14:55 1022 30.18 851 25.13 9 48.2 32 -6.6 20
15:00 1022 30.18 851 25.13 9.5 49 32 -6.6 20.1
15:05 1022 30.18 851 25.13 9.2 48.6 34 -6 21.2
15:10 1022 30.18 851 25.13 8.9 48.1 35 -5.6 22
15:15 1022 30.18 851 25.13 8.5 47.3 38 -5.1 22.8
15:20 1022 30.18 851 25.13 9.1 48.4 36 -5.3 22.4
15:25 1022 30.18 851 25.13 9 48.3 33 -6.6 20.2
15:30 1022 30.18 851 25.13 9.3 48.7 33 -6.3 20.7
15:35 1022 30.18 851 25.13 9.3 48.8 34 -5.5 22
15:40 1021 30.15 851 25.13 9.3 48.7 33 -6.3 20.7
15:45 1021 30.15 851 25.13 9.5 49 33 -5.8 21.5
15:50 1021 30.15 851 25.13 9.8 49.7 31 -6.4 20.4
15:55 1021 30.15 850 25.1 9.2 48.6 34 -6 21.3
16:00 1021 30.15 850 25.1 8.5 47.3 35 -6.2 20.9
16:05 1021 30.15 850 25.1 8.7 47.7 35 -5.8 21.5
16:10 1021 30.15 850 25.1 9.2 48.5 33 -6.4 20.5
16:15 1021 30.15 850 25.1 9.1 48.4 34 -6 21.2
16:20 1021 30.15 850 25.1 8.9 48.1 35 -5.8 21.6
16:25 1021 30.15 850 25.1 8.8 47.8 33 -6.5 20.4
16:30 1021 30.15 850 25.1 9 48.2 35 -5.8 21.5
16:35 1021 30.15 850 25.1 9.6 49.4 32 -6.1 21
16:40 1021 30.15 850 25.1 9.2 48.6 36 -5.1 22.8
16:45 1021 30.15 850 25.1 8.9 48.1 33 -6.3 20.6
16:50 1021 30.15 850 25.1 9.3 48.7 33 -6.1 21
16:55 1021 30.15 850 25.1 9 48.2 33 -6.3 20.7
17:00 1021 30.15 850 25.1 8.9 48 33 -6.4 20.5
17:05 1021 30.15 850 25.1 9.3 48.7 32 -6.5 20.3
17:10 1021 30.15 850 25.1 9.9 49.9 32 -6 21.1
17:15 1021 30.15 850 25.1 9.6 49.3 32 -6.2 20.9
17:20 1020 30.12 850 25.1 9.5 49.1 32 -6.2 20.9
17:25 1020 30.12 850 25.1 9.3 48.7 31 -6.8 19.7
17:30 1020 30.12 850 25.1 9.5 49.1 32 -6.4 20.4
17:35 1020 30.12 850 25.1 9.9 49.7 32 -6.2 20.8
17:40 1020 30.12 850 25.1 9.7 49.4 33 -5.9 21.3
17:45 1020 30.12 850 25.1 9.6 49.3 32 -6.2 20.8
17:50 1020 30.12 850 25.1 9.2 48.5 33 -6.3 20.7
17:55 1020 30.12 850 25.1 9.7 49.5 30 -7 19.5
18:00 1020 30.12 849 25.07 9.9 49.8 32 -6.1 21
18:05 1020 30.12 849 25.07 9.6 49.3 32 -6.2 20.8
18:10 1020 30.12 849 25.07 8.8 47.8 32 -6.8 19.7
18:15 1020 30.12 849 25.07 8.6 47.4 33 -6.8 19.8
18:20 1020 30.12 849 25.07 8.6 47.4 33 -6.7 20
18:25 1020 30.12 849 25.07 9.4 48.9 31 -7.1 19.3
18:30 1020 30.12 849 25.07 9.6 49.3 31 -6.8 19.7
18:35 1020 30.12 849 25.07 9.3 48.7 33 -6.2 20.8
18:40 1020 30.12 849 25.07 8.8 47.8 34 -6.4 20.5
18:45 1020 30.12 849 25.07 8.5 47.3 33 -6.9 19.6
18:50 1020 30.12 849 25.07 8.6 47.5 33 -6.7 20
18:55 1020 30.12 849 25.07 8.9 48 32 -6.7 19.9
19:00 1020 30.12 849 25.07 8.4 47.1 34 -6.6 20
19:05 1020 30.12 849 25.07 8.4 47.2 32 -7.1 19.2
19:10 1020 30.12 849 25.07 8.4 47.1 33 -7.1 19.2
19:15 1020 30.12 849 25.07 8.4 47.1 32 -7.3 18.8
19:20 1020 30.12 849 25.07 8.1 46.5 33 -7.2 19
19:25 1020 30.12 849 25.07 7.5 45.5 33 -7.8 18
19:30 1020 30.12 849 25.07 7.5 45.5 35 -7.1 19.3
19:35 1020 30.12 849 25.07 7.5 45.6 33 -7.8 18
19:40 1020 30.12 849 25.07 7.5 45.5 33 -7.8 18
19:45 1020 30.12 849 25.07 7.3 45.2 34 -7.4 18.7
19:50 1020 30.12 849 25.07 7.3 45.1 33 -7.9 17.7
19:55 1020 30.12 849 25.07 7.1 44.8 34 -7.7 18.1
20:00 1020 30.12 849 25.07 7 44.6 36 -7.2 19.1
20:05 1020 30.12 849 25.07 6.9 44.3 36 -7.2 19
20:10 1019 30.09 849 25.07 6.8 44.2 37 -7.1 19.2
20:15 1019 30.09 849 25.07 6.7 44.1 37 -7 19.4
20:20 1019 30.09 849 25.07 6.7 44.1 38 -6.5 20.3
20:25 1019 30.09 849 25.07 6.7 44 39 -6.3 20.7
20:30 1019 30.09 849 25.07 6.6 43.9 39 -6.3 20.6
20:35 1019 30.09 849 25.07 6.4 43.5 39 -6.4 20.4
20:40 1019 30.09 849 25.07 6.3 43.3 41 -6.1 20.9
20:45 1019 30.09 849 25.07 6 42.8 45 -5 23
20:50 1019 30.09 849 25.07 5.5 41.9 48 -4.6 23.8
20:55 1019 30.09 849 25.07 5.2 41.3 53 -3.7 25.4
21:00 1019 30.09 849 25.07 4.8 40.7 55 -3.5 25.7
21:05 1020 30.12 849 25.07 4.4 39.9 64 -1.8 28.8
21:10 1020 30.12 849 25.07 3.7 38.7 68 -1.7 28.9
21:15 1020 30.12 849 25.07 3.5 38.3 67 -2 28.5
21:20 1020 30.12 849 25.07 3.6 38.4 64 -2.6 27.3
21:25 1020 30.12 849 25.07 3.8 38.8 63 -2.7 27.1
21:30 1020 30.12 849 25.07 3.9 38.9 61 -2.9 26.8
21:35 1020 30.12 849 25.07 3.9 38.9 62 -2.8 26.9
21:40 1020 30.12 849 25.07 3.8 38.8 62 -2.9 26.8
21:45 1020 30.12 849 25.07 3.6 38.5 62 -2.9 26.8
21:50 1020 30.12 849 25.07 3.5 38.4 62 -3 26.6
21:55 1020 30.12 849 25.07 3.5 38.3 63 -2.9 26.7
22:00 1020 30.12 849 25.07 3.5 38.3 63 -2.9 26.8
22:05 1019 30.09 849 25.07 3.4 38.1 65 -2.5 27.4
22:10 1019 30.09 849 25.07 3.1 37.6 67 -2.5 27.5
22:15 1019 30.09 849 25.07 2.8 37.1 67 -2.6 27.3
22:20 1019 30.09 849 25.07 2.8 37.1 66 -2.8 27
22:25 1019 30.09 849 25.07 2.8 37 66 -2.9 26.8
22:30 1019 30.09 848 25.04 2.9 37.2 65 -3.1 26.4
22:35 1019 30.09 848 25.04 2.8 37 65 -3.1 26.4
22:40 1019 30.09 848 25.04 2.7 36.9 65 -3.2 26.2
22:45 1019 30.09 848 25.04 2.7 36.9 64 -3.4 25.9
22:50 1019 30.09 848 25.04 2.7 36.8 63 -3.7 25.4
22:55 1019 30.09 848 25.04 2.7 36.9 62 -3.8 25.1
23:00 1019 30.09 848 25.04 2.7 36.9 61 -4 24.7
23:05 1019 30.09 848 25.04 2.7 36.9 62 -3.8 25.1
23:10 1019 30.09 848 25.04 2.6 36.8 62 -3.9 24.9
23:15 1019 30.09 848 25.04 2.6 36.8 63 -3.6 25.4
23:20 1019 30.09 848 25.04 2.6 36.7 63 -3.8 25.2
23:25 1019 30.09 848 25.04 2.7 36.8 62 -3.9 24.9
23:30 1019 30.09 848 25.04 2.6 36.7 62 -3.9 24.9
23:35 1019 30.09 848 25.04 2.5 36.5 62 -4.1 24.6
23:40 1019 30.09 848 25.04 2.4 36.4 62 -4.1 24.6
23:45 1019 30.09 848 25.04 2.3 36.1 61 -4.5 23.9
23:50 1019 30.09 848 25.04 2.3 36.2 61 -4.4 24.1
23:55 1019 30.09 848 25.04 2.5 36.4 60 -4.5 23.8
24:00 1019 30.09 848 25.04 2.5 36.5 60 -4.4 24.1